Time;durP1;ratioP1;P1;durP2;ratioP2;P2;SDS_P1;SDS_P2;PMS_P1;PMS_P2;Temp;Humidity;BMP_temperature;BMP_pressure;BME280_temperature;BME280_humidity;BME280_pressure;Samples;Min_cycle;Max_cycle;Signal;HPM_P1;HPM_P2
2022/06/08 00:04:30;;;;;;;3.00;2.38;;;;;;;24.72;47.61;99568.22;20655216;28;99664;-78
2022/06/08 00:14:30;;;;;;;4.15;2.58;;;;;;;24.63;48.16;99579.72;20640016;28;99251;-78
2022/06/08 00:24:31;;;;;;;3.35;2.55;;;;;;;24.64;48.01;99570.81;20638714;28;98211;-78
2022/06/08 00:34:32;;;;;;;2.42;2.22;;;;;;;24.58;48.11;99577.59;20650902;28;99783;-78
2022/06/08 00:44:42;;;;;;;5.13;2.63;;;;;;;24.50;48.77;99571.41;20648981;27;97875;-78
2022/06/08 00:54:48;;;;;;;2.40;2.20;;;;;;;24.74;47.63;99582.13;20641674;28;100502;-78
2022/06/08 01:04:48;;;;;;;4.20;2.05;;;;;;;24.89;48.01;99611.44;20644123;28;97912;-78
2022/06/08 01:14:49;;;;;;;3.42;2.10;;;;;;;25.01;47.40;99629.66;20627573;27;98023;-77
2022/06/08 01:24:51;;;;;;;2.72;2.22;;;;;;;25.09;47.39;99624.38;20630149;28;99934;-78
2022/06/08 01:35:32;;;;;;;2.38;2.17;;;;;;;25.16;47.02;99614.78;20630411;27;98371;-78
2022/06/08 01:45:47;;;;;;;2.43;2.23;;;;;;;25.23;47.23;99604.34;20631801;27;98237;-77
2022/06/08 01:55:54;;;;;;;2.50;2.25;;;;;;;25.28;46.84;99582.66;20632468;28;97261;-78
2022/06/08 02:06:24;;;;;;;1.90;1.80;;;;;;;25.31;46.86;99614.97;20639860;28;99686;-78
2022/06/08 02:16:32;;;;;;;1.90;1.80;;;;;;;25.34;46.86;99616.44;20634006;28;99905;-78
2022/06/08 02:26:43;;;;;;;3.88;2.08;;;;;;;25.35;46.80;99626.06;20542781;28;97767;-78
2022/06/08 02:36:51;;;;;;;2.50;1.90;;;;;;;25.36;46.86;99586.13;20546110;28;98415;-78
2022/06/08 02:47:04;;;;;;;2.00;1.88;;;;;;;25.39;46.81;99606.25;20542951;28;98809;-76
2022/06/08 02:57:26;;;;;;;2.08;1.90;;;;;;;25.39;46.93;99612.34;20553066;28;100207;-76
2022/06/08 03:07:36;;;;;;;2.05;1.65;;;;;;;25.41;46.73;99607.72;20550653;28;98306;-78
2022/06/08 03:17:38;;;;;;;2.00;1.88;;;;;;;25.42;47.04;99614.66;20555858;28;97703;-77
2022/06/08 03:27:39;;;;;;;2.05;1.73;;;;;;;25.42;46.64;99622.59;20557264;28;99594;-77
2022/06/08 03:37:40;;;;;;;2.00;1.80;;;;;;;25.44;47.10;99643.66;20556515;28;99197;-77
2022/06/08 03:47:45;;;;;;;1.80;1.70;;;;;;;25.45;46.74;99669.19;20557419;28;99484;-77
2022/06/08 03:57:47;;;;;;;2.80;1.70;;;;;;;25.44;46.94;99656.91;20550966;28;101856;-78
2022/06/08 04:07:47;;;;;;;1.73;1.60;;;;;;;25.47;46.76;99638.03;20544560;28;99559;-77
2022/06/08 04:17:48;;;;;;;2.45;2.25;;;;;;;25.35;48.69;99639.31;20592124;28;98576;-78
2022/06/08 04:27:48;;;;;;;3.15;2.30;;;;;;;25.10;50.55;99642.75;20581759;28;99649;-80
2022/06/08 04:37:49;;;;;;;2.83;2.55;;;;;;;25.01;51.48;99649.03;20605740;28;99071;-80
2022/06/08 04:47:49;;;;;;;3.50;3.20;;;;;;;24.85;52.19;99649.84;20638088;28;98944;-81
2022/06/08 04:57:50;;;;;;;3.45;2.80;;;;;;;24.69;52.82;99644.47;20610533;28;99525;-79
2022/06/08 05:07:51;;;;;;;3.25;2.95;;;;;;;24.72;53.07;99658.22;20591558;28;99064;-77
2022/06/08 05:17:52;;;;;;;6.00;3.30;;;;;;;24.59;53.41;99658.63;20594597;28;96929;-78
2022/06/08 05:27:53;;;;;;;3.65;2.80;;;;;;;24.57;53.42;99670.34;20616726;27;98950;-82
2022/06/08 05:37:53;;;;;;;6.38;3.53;;;;;;;24.50;53.32;99643.72;20618892;28;98185;-79
2022/06/08 05:47:54;;;;;;;4.00;2.97;;;;;;;24.39;54.36;99650.13;20642453;28;99856;-80
2022/06/08 05:57:55;;;;;;;3.30;2.90;;;;;;;24.42;54.60;99670.94;20644320;28;96865;-80
2022/06/08 06:07:56;;;;;;;8.93;2.90;;;;;;;24.45;54.35;99688.34;20640061;28;99702;-79
2022/06/08 06:17:57;;;;;;;2.97;2.70;;;;;;;24.58;54.43;99695.84;20619996;28;97738;-78
2022/06/08 06:27:58;;;;;;;3.50;2.90;;;;;;;24.53;54.02;99671.69;20600250;28;97611;-78
2022/06/08 06:37:58;;;;;;;3.40;2.90;;;;;;;24.54;54.58;99684.75;20596140;28;99480;-79
2022/06/08 06:47:59;;;;;;;4.88;3.60;;;;;;;24.48;54.61;99673.97;20628974;28;98853;-79
2022/06/08 06:57:59;;;;;;;4.72;3.13;;;;;;;24.55;54.47;99659.13;20642913;27;97466;-80
2022/06/08 07:08:01;;;;;;;4.95;2.95;;;;;;;24.75;54.09;99651.78;20626820;28;96945;-79
2022/06/08 07:18:01;;;;;;;2.60;2.40;;;;;;;24.87;53.40;99637.25;20604905;28;98594;-81
2022/06/08 07:28:03;;;;;;;4.60;2.58;;;;;;;24.96;53.12;99624.03;20645860;28;99244;-80
2022/06/08 07:38:04;;;;;;;2.55;2.35;;;;;;;25.02;52.56;99623.38;20715014;28;97201;-81
2022/06/08 07:58:24;;;;;;;2.60;2.40;;;;;;;25.17;51.89;99619.09;20720250;28;96772;-82
2022/06/08 08:08:24;;;;;;;3.37;2.20;;;;;;;25.21;51.92;99620.44;20717907;28;96763;-83
2022/06/08 08:18:25;;;;;;;2.30;1.90;;;;;;;25.28;51.34;99609.16;20720110;28;96876;-82
2022/06/08 08:28:26;;;;;;;3.17;2.17;;;;;;;25.31;51.15;99609.66;20712165;28;100723;-83
2022/06/08 08:38:26;;;;;;;5.03;2.20;;;;;;;25.36;50.85;99606.53;20707939;28;97692;-83
2022/06/08 08:48:31;;;;;;;1.90;1.80;;;;;;;25.39;50.93;99604.41;20700270;28;96946;-82
2022/06/08 08:58:41;;;;;;;2.47;2.00;;;;;;;25.43;50.57;99596.94;20712628;27;97234;-83
2022/06/08 09:08:45;;;;;;;2.17;2.00;;;;;;;25.45;50.91;99579.06;20713900;27;98916;-82
2022/06/08 09:18:45;;;;;;;2.00;1.85;;;;;;;25.49;50.66;99588.34;20716662;28;97279;-82
2022/06/08 09:28:57;;;;;;;5.05;2.60;;;;;;;25.51;50.37;99583.69;20720230;28;97442;-82
2022/06/08 09:38:57;;;;;;;3.47;3.17;;;;;;;25.54;50.39;99580.69;20715841;28;97662;-82
2022/06/08 09:59:43;;;;;;;4.40;4.00;;;;;;;25.58;50.04;99538.78;20716948;28;97792;-82
2022/06/08 10:10:34;;;;;;;4.90;4.20;;;;;;;25.60;50.26;99523.53;20711920;28;96957;-82
2022/06/08 10:20:39;;;;;;;4.43;4.03;;;;;;;25.61;50.40;99514.59;20681487;28;99894;-82
2022/06/08 10:30:57;;;;;;;4.70;4.25;;;;;;;25.65;49.85;99504.47;20721214;28;97165;-82
2022/06/08 10:42:39;;;;;;;4.80;4.30;;;;;;;25.67;50.06;99492.72;20717392;28;97086;-83
2022/06/08 10:51:35;;;;;;;4.87;4.37;;;;;;;25.69;49.72;99482.75;20709846;28;96735;-83
2022/06/08 11:01:54;;;;;;;4.63;4.00;;;;;;;25.72;50.13;99481.59;20712477;28;96910;-83
2022/06/08 11:12:12;;;;;;;4.65;4.25;;;;;;;25.76;49.98;99467.00;20730057;28;96830;-81
2022/06/08 11:22:25;;;;;;;4.10;3.70;;;;;;;25.80;49.79;99457.69;20724524;28;97257;-82
2022/06/08 11:32:32;;;;;;;5.30;4.57;;;;;;;25.84;49.75;99447.56;20713959;28;99782;-81
2022/06/08 11:42:47;;;;;;;14.35;5.03;;;;;;;25.88;49.49;99436.44;20704149;28;100472;-77
2022/06/08 11:53:02;;;;;;;5.13;4.50;;;;;;;25.96;46.48;99424.13;20680669;28;101217;-78
2022/06/08 12:03:21;;;;;;;3.92;3.00;;;;;;;25.99;44.48;99421.97;20682441;28;98642;-78
2022/06/08 12:13:22;;;;;;;4.57;2.92;;;;;;;26.02;43.72;99408.38;20679979;28;101948;-78
2022/06/08 12:23:39;;;;;;;3.23;2.93;;;;;;;26.08;44.88;99401.53;20678407;27;96902;-78
2022/06/08 12:33:40;;;;;;;7.18;3.80;;;;;;;26.11;44.09;99395.06;20693467;28;97012;-77
2022/06/08 12:44:04;;;;;;;8.18;4.07;;;;;;;26.14;44.00;99366.34;20683406;28;98008;-78
2022/06/08 12:54:33;;;;;;;6.28;4.07;;;;;;;26.17;43.82;99359.88;20689988;28;97382;-79
2022/06/08 13:04:33;;;;;;;7.38;4.07;;;;;;;26.17;44.35;99368.66;20703805;28;97323;-79
2022/06/08 13:14:36;;;;;;;4.35;3.95;;;;;;;26.21;46.39;99350.56;20722473;28;96895;-75
2022/06/08 13:24:39;;;;;;;6.50;4.30;;;;;;;26.21;47.78;99354.03;20698395;27;101229;-81
2022/06/08 13:34:39;;;;;;;5.22;4.00;;;;;;;26.27;47.78;99356.97;20715146;27;99208;-80
2022/06/08 13:44:43;;;;;;;7.65;4.40;;;;;;;26.33;47.49;99358.91;20732913;28;97316;-83
2022/06/08 13:54:52;;;;;;;6.10;4.40;;;;;;;26.35;47.59;99408.19;20749396;28;97120;-80
2022/06/08 14:04:54;;;;;;;5.78;3.85;;;;;;;26.30;47.61;99460.94;20748739;28;97079;-80
2022/06/08 14:14:54;;;;;;;4.72;4.32;;;;;;;26.26;48.80;99474.75;20750463;28;97396;-79
2022/06/08 14:25:02;;;;;;;6.97;4.25;;;;;;;26.22;49.16;99474.28;20741840;28;97007;-81
2022/06/08 14:35:21;;;;;;;7.95;4.18;;;;;;;26.16;49.59;99467.03;20738897;28;96969;-80
2022/06/08 14:45:23;;;;;;;4.40;3.95;;;;;;;26.09;50.67;99474.03;20754355;28;96946;-80
2022/06/08 15:05:44;;;;;;;5.90;4.53;;;;;;;25.96;53.11;99446.16;20754300;27;98486;-80
2022/06/08 15:15:45;;;;;;;10.47;4.70;;;;;;;25.86;54.78;99422.50;20758559;28;97010;-80
2022/06/08 15:25:51;;;;;;;9.57;5.67;;;;;;;25.56;54.24;99426.78;20752624;28;97068;-80
2022/06/08 15:36:14;;;;;;;10.52;5.85;;;;;;;25.64;55.88;99434.72;20738433;28;97357;-79
2022/06/08 15:46:20;;;;;;;9.55;7.15;;;;;;;24.98;58.84;99461.31;20737773;28;98365;-82
2022/06/08 15:56:39;;;;;;;8.93;7.00;;;;;;;24.57;59.21;99453.34;20711482;27;98969;-82
2022/06/08 16:06:42;;;;;;;54.92;35.17;;;;;;;24.55;60.51;99453.50;20704953;28;97621;-83
2022/06/08 16:16:42;;;;;;;25.67;18.00;;;;;;;24.65;59.87;99442.75;20699732;28;98205;-84
2022/06/08 16:26:43;;;;;;;13.40;9.70;;;;;;;24.81;60.04;99444.59;20711167;28;98218;-84
2022/06/08 16:36:44;;;;;;;11.65;8.73;;;;;;;24.72;60.43;99435.84;20693665;27;97858;-85
2022/06/08 16:46:46;;;;;;;19.47;10.90;;;;;;;25.03;59.12;99429.03;20707276;27;99798;-83
2022/06/08 17:07:08;;;;;;;11.68;6.82;;;;;;;24.41;59.52;99435.63;20677006;28;99582;-79
2022/06/08 17:17:12;;;;;;;11.35;9.55;;;;;;;24.58;58.36;99441.75;20700579;27;98574;-79
2022/06/08 17:27:13;;;;;;;9.38;7.13;;;;;;;24.41;57.84;99427.69;20692034;28;98461;-80
2022/06/08 17:37:14;;;;;;;7.30;6.27;;;;;;;23.78;60.15;99420.06;20691195;28;98341;-82
2022/06/08 17:47:15;;;;;;;9.10;6.07;;;;;;;23.43;60.93;99408.66;20699416;28;99869;-79
2022/06/08 17:57:16;;;;;;;7.22;4.32;;;;;;;24.55;57.49;99389.16;20713526;28;97343;-83
2022/06/08 18:07:16;;;;;;;11.27;4.30;;;;;;;24.96;56.36;99398.94;20732719;28;97030;-81
2022/06/08 18:17:25;;;;;;;5.30;4.13;;;;;;;25.24;54.97;99394.91;20744903;27;97297;-81
2022/06/08 18:27:42;;;;;;;5.35;4.15;;;;;;;25.45;54.65;99398.00;20777599;28;97937;-80
2022/06/08 18:37:44;;;;;;;9.93;4.35;;;;;;;25.56;54.02;99405.56;20790729;28;97857;-83
2022/06/08 18:47:46;;;;;;;7.25;4.53;;;;;;;25.63;53.70;99426.94;20779019;27;98009;-82
2022/06/08 18:57:49;;;;;;;6.00;3.97;;;;;;;25.63;52.96;99429.59;20763220;28;100558;-81
2022/06/08 19:07:55;;;;;;;8.77;5.55;;;;;;;25.26;53.36;99458.31;20790504;28;97087;-81
2022/06/08 19:28:17;;;;;;;14.93;8.80;;;;;;;24.92;54.56;99484.00;20765862;27;100268;-82
2022/06/08 19:38:20;;;;;;;9.82;7.25;;;;;;;24.72;55.09;99485.34;20792007;27;103143;-82
2022/06/08 19:48:22;;;;;;;9.60;7.28;;;;;;;24.52;55.53;99496.16;20795035;27;97302;-83
2022/06/08 19:58:23;;;;;;;8.05;7.00;;;;;;;24.28;55.99;99496.97;20789968;27;97044;-81
2022/06/08 20:08:24;;;;;;;9.95;6.90;;;;;;;24.06;56.51;99470.09;20794970;27;98328;-83
2022/06/08 20:18:24;;;;;;;11.80;6.90;;;;;;;24.01;56.85;99474.19;20814957;27;96654;-82
2022/06/08 20:28:28;;;;;;;11.00;7.18;;;;;;;23.78;57.66;99487.97;20813188;27;97363;-83
2022/06/08 20:38:28;;;;;;;9.15;7.40;;;;;;;23.69;57.58;99508.22;20832688;27;97039;-83
2022/06/08 20:48:31;;;;;;;10.05;7.15;;;;;;;23.63;57.59;99511.50;20790391;27;96913;-82
2022/06/08 20:58:45;;;;;;;9.80;7.45;;;;;;;23.48;58.21;99505.97;20808667;28;96557;-81
2022/06/08 21:09:17;;;;;;;12.23;7.32;;;;;;;23.42;58.59;99501.28;20816541;27;96372;-82
2022/06/08 21:19:19;;;;;;;11.57;7.27;;;;;;;23.26;58.64;99497.56;20799523;27;97396;-81
2022/06/08 21:29:36;;;;;;;8.60;7.57;;;;;;;23.24;58.86;99496.91;20814791;27;97296;-82
2022/06/08 21:39:39;;;;;;;9.85;7.85;;;;;;;23.26;58.94;99488.81;20813208;28;96607;-81
2022/06/08 21:49:48;;;;;;;10.38;7.88;;;;;;;23.14;58.95;99489.03;20791406;27;96792;-82
2022/06/08 21:59:48;;;;;;;12.80;8.20;;;;;;;23.03;59.05;99492.75;20784980;28;97069;-81
2022/06/08 22:09:49;;;;;;;10.25;8.15;;;;;;;22.96;59.02;99493.47;20804245;27;97112;-82
2022/06/08 22:20:01;;;;;;;8.93;7.83;;;;;;;22.94;59.44;99493.66;20808104;28;96993;-82
2022/06/08 22:30:03;;;;;;;11.20;7.77;;;;;;;22.89;59.39;99490.63;20806734;28;97331;-81
2022/06/08 22:40:04;;;;;;;11.25;8.45;;;;;;;22.87;59.51;99482.03;20789270;28;96709;-82
2022/06/08 22:50:06;;;;;;;10.75;8.35;;;;;;;22.76;59.63;99466.44;20814165;27;99928;-82
2022/06/08 23:00:23;;;;;;;10.80;8.52;;;;;;;22.74;59.43;99463.13;20801145;28;96937;-80
2022/06/08 23:10:23;;;;;;;13.10;8.20;;;;;;;22.57;59.88;99462.97;20806649;28;96854;-81
2022/06/08 23:20:32;;;;;;;9.43;7.57;;;;;;;22.58;59.85;99445.31;20773867;27;97420;-82
2022/06/08 23:30:32;;;;;;;8.80;7.40;;;;;;;22.52;59.67;99436.19;20781906;27;97786;-81
2022/06/08 23:51:06;;;;;;;11.55;8.18;;;;;;;22.44;59.60;99425.59;22695823;22;99583;-81
